sensor_id;sensor_type;location;lat;lon;timestamp;P1;durP1;ratioP1;P2;durP2;ratioP2
21743;SDS011;11034;48.556;9.342;2023-02-25T05:47:33;14.70;;;5.63;;
21743;SDS011;11034;48.556;9.342;2023-02-25T05:50:02;18.58;;;5.80;;
21743;SDS011;11034;48.556;9.342;2023-02-25T05:52:30;11.35;;;4.93;;
21743;SDS011;11034;48.556;9.342;2023-02-25T05:54:58;11.75;;;4.90;;
21743;SDS011;11034;48.556;9.342;2023-02-25T05:57:27;10.40;;;4.07;;
21743;SDS011;11034;48.556;9.342;2023-02-25T05:59:55;7.53;;;4.03;;
21743;SDS011;11034;48.556;9.342;2023-02-25T06:02:23;15.52;;;3.40;;
21743;SDS011;11034;48.556;9.342;2023-02-25T06:04:53;8.95;;;3.22;;
21743;SDS011;11034;48.556;9.342;2023-02-25T06:07:21;6.93;;;2.95;;
21743;SDS011;11034;48.556;9.342;2023-02-25T06:09:49;11.82;;;2.85;;
21743;SDS011;11034;48.556;9.342;2023-02-25T06:12:17;9.07;;;2.40;;
21743;SDS011;11034;48.556;9.342;2023-02-25T06:14:45;8.18;;;2.67;;
21743;SDS011;11034;48.556;9.342;2023-02-25T06:17:13;6.07;;;2.40;;
21743;SDS011;11034;48.556;9.342;2023-02-25T06:19:41;11.30;;;2.70;;
21743;SDS011;11034;48.556;9.342;2023-02-25T06:22:10;6.10;;;2.40;;
21743;SDS011;11034;48.556;9.342;2023-02-25T06:24:38;6.32;;;2.22;;
21743;SDS011;11034;48.556;9.342;2023-02-25T06:27:06;8.25;;;2.53;;
21743;SDS011;11034;48.556;9.342;2023-02-25T06:29:35;9.88;;;2.70;;
21743;SDS011;11034;48.556;9.342;2023-02-25T06:32:07;6.38;;;3.05;;
21743;SDS011;11034;48.556;9.342;2023-02-25T06:34:35;7.78;;;3.00;;
21743;SDS011;11034;48.556;9.342;2023-02-25T06:37:04;6.70;;;2.88;;
21743;SDS011;11034;48.556;9.342;2023-02-25T06:39:38;6.85;;;2.53;;
21743;SDS011;11034;48.556;9.342;2023-02-25T06:42:08;8.07;;;2.90;;
21743;SDS011;11034;48.556;9.342;2023-02-25T06:44:36;8.45;;;3.28;;
21743;SDS011;11034;48.556;9.342;2023-02-25T06:47:06;8.55;;;2.40;;
21743;SDS011;11034;48.556;9.342;2023-02-25T06:49:33;10.40;;;2.58;;
21743;SDS011;11034;48.556;9.342;2023-02-25T06:52:01;8.40;;;2.78;;
21743;SDS011;11034;48.556;9.342;2023-02-25T06:54:30;8.18;;;2.30;;
21743;SDS011;11034;48.556;9.342;2023-02-25T06:56:59;9.65;;;2.00;;
21743;SDS011;11034;48.556;9.342;2023-02-25T06:59:27;5.93;;;2.03;;
21743;SDS011;11034;48.556;9.342;2023-02-25T07:01:55;8.35;;;2.20;;
21743;SDS011;11034;48.556;9.342;2023-02-25T07:04:23;8.82;;;2.28;;
21743;SDS011;11034;48.556;9.342;2023-02-25T07:06:51;4.53;;;2.00;;
21743;SDS011;11034;48.556;9.342;2023-02-25T07:09:19;4.00;;;1.80;;
21743;SDS011;11034;48.556;9.342;2023-02-25T07:11:47;5.22;;;2.45;;
21743;SDS011;11034;48.556;9.342;2023-02-25T07:14:16;11.55;;;2.55;;
21743;SDS011;11034;48.556;9.342;2023-02-25T07:16:44;5.55;;;2.22;;
21743;SDS011;11034;48.556;9.342;2023-02-25T07:19:12;6.93;;;2.00;;
21743;SDS011;11034;48.556;9.342;2023-02-25T07:21:41;9.93;;;2.30;;
21743;SDS011;11034;48.556;9.342;2023-02-25T07:24:10;7.63;;;2.08;;
21743;SDS011;11034;48.556;9.342;2023-02-25T07:26:39;4.95;;;2.20;;
21743;SDS011;11034;48.556;9.342;2023-02-25T07:29:07;6.57;;;2.15;;
21743;SDS011;11034;48.556;9.342;2023-02-25T07:31:37;6.88;;;2.20;;
21743;SDS011;11034;48.556;9.342;2023-02-25T07:34:05;3.83;;;2.05;;
21743;SDS011;11034;48.556;9.342;2023-02-25T07:36:34;7.60;;;2.28;;
21743;SDS011;11034;48.556;9.342;2023-02-25T07:39:03;4.07;;;2.10;;
21743;SDS011;11034;48.556;9.342;2023-02-25T07:41:32;7.53;;;2.47;;
21743;SDS011;11034;48.556;9.342;2023-02-25T07:44:01;5.82;;;1.90;;
21743;SDS011;11034;48.556;9.342;2023-02-25T15:02:37;7.75;;;3.85;;
21743;SDS011;11034;48.556;9.342;2023-02-25T15:05:18;8.38;;;3.45;;
21743;SDS011;11034;48.556;9.342;2023-02-25T15:08:03;9.00;;;3.47;;
21743;SDS011;11034;48.556;9.342;2023-02-25T15:10:52;5.32;;;2.67;;
21743;SDS011;11034;48.556;9.342;2023-02-25T15:16:58;6.20;;;1.65;;
21743;SDS011;11034;48.556;9.342;2023-02-25T15:19:52;7.65;;;1.95;;
21743;SDS011;11034;48.556;9.342;2023-02-25T15:22:36;5.50;;;1.73;;
21743;SDS011;11034;48.556;9.342;2023-02-25T15:25:34;4.50;;;1.52;;
21743;SDS011;11034;48.556;9.342;2023-02-25T15:31:07;3.30;;;1.35;;
21743;SDS011;11034;48.556;9.342;2023-02-25T15:33:54;9.65;;;1.65;;
21743;SDS011;11034;48.556;9.342;2023-02-25T15:37:17;3.97;;;1.30;;
21743;SDS011;11034;48.556;9.342;2023-02-25T15:39:51;5.80;;;1.40;;
21743;SDS011;11034;48.556;9.342;2023-02-25T15:42:38;5.72;;;1.17;;
21743;SDS011;11034;48.556;9.342;2023-02-25T15:48:23;5.72;;;1.52;;
21743;SDS011;11034;48.556;9.342;2023-02-25T15:51:03;4.75;;;2.03;;
21743;SDS011;11034;48.556;9.342;2023-02-25T15:53:39;6.40;;;2.75;;
21743;SDS011;11034;48.556;9.342;2023-02-25T16:05:00;12.90;;;5.85;;
21743;SDS011;11034;48.556;9.342;2023-02-25T16:07:31;16.15;;;6.25;;
21743;SDS011;11034;48.556;9.342;2023-02-25T16:10:06;13.00;;;4.70;;
21743;SDS011;11034;48.556;9.342;2023-02-25T16:12:44;7.20;;;3.33;;
21743;SDS011;11034;48.556;9.342;2023-02-25T16:15:17;5.53;;;2.40;;
21743;SDS011;11034;48.556;9.342;2023-02-25T16:17:52;9.35;;;4.18;;
21743;SDS011;11034;48.556;9.342;2023-02-25T16:20:23;3.47;;;1.98;;
21743;SDS011;11034;48.556;9.342;2023-02-25T16:22:56;5.50;;;2.00;;
21743;SDS011;11034;48.556;9.342;2023-02-25T16:25:29;5.45;;;1.80;;
21743;SDS011;11034;48.556;9.342;2023-02-25T16:28:04;5.80;;;1.83;;
21743;SDS011;11034;48.556;9.342;2023-02-25T16:30:47;7.22;;;2.30;;
21743;SDS011;11034;48.556;9.342;2023-02-25T16:33:22;5.80;;;2.05;;
21743;SDS011;11034;48.556;9.342;2023-02-25T16:35:57;5.70;;;1.85;;
21743;SDS011;11034;48.556;9.342;2023-02-25T16:38:34;6.38;;;2.17;;
21743;SDS011;11034;48.556;9.342;2023-02-25T16:41:09;3.58;;;1.70;;
21743;SDS011;11034;48.556;9.342;2023-02-25T16:43:39;9.45;;;2.50;;
21743;SDS011;11034;48.556;9.342;2023-02-25T16:46:09;6.20;;;2.25;;
21743;SDS011;11034;48.556;9.342;2023-02-25T16:48:44;7.53;;;2.40;;
21743;SDS011;11034;48.556;9.342;2023-02-25T16:51:18;17.95;;;6.85;;
21743;SDS011;11034;48.556;9.342;2023-02-25T16:53:53;13.70;;;5.85;;
21743;SDS011;11034;48.556;9.342;2023-02-25T16:56:27;14.52;;;5.00;;
21743;SDS011;11034;48.556;9.342;2023-02-25T16:58:57;7.82;;;3.65;;
21743;SDS011;11034;48.556;9.342;2023-02-25T17:01:28;6.78;;;2.85;;
21743;SDS011;11034;48.556;9.342;2023-02-25T17:04:04;8.02;;;3.38;;
21743;SDS011;11034;48.556;9.342;2023-02-25T17:06:40;7.35;;;2.20;;
21743;SDS011;11034;48.556;9.342;2023-02-25T17:09:20;7.05;;;3.10;;
21743;SDS011;11034;48.556;9.342;2023-02-25T17:11:52;7.70;;;3.25;;
21743;SDS011;11034;48.556;9.342;2023-02-25T17:14:22;9.18;;;3.20;;
21743;SDS011;11034;48.556;9.342;2023-02-25T17:16:51;7.18;;;3.60;;
21743;SDS011;11034;48.556;9.342;2023-02-25T17:19:20;11.98;;;3.53;;
21743;SDS011;11034;48.556;9.342;2023-02-25T17:21:50;11.52;;;3.67;;
21743;SDS011;11034;48.556;9.342;2023-02-25T17:24:22;15.00;;;4.55;;
21743;SDS011;11034;48.556;9.342;2023-02-25T17:26:54;9.75;;;3.78;;
21743;SDS011;11034;48.556;9.342;2023-02-25T17:29:22;13.55;;;4.28;;
21743;SDS011;11034;48.556;9.342;2023-02-25T17:32:10;9.32;;;4.03;;
21743;SDS011;11034;48.556;9.342;2023-02-25T17:34:40;11.68;;;3.63;;
21743;SDS011;11034;48.556;9.342;2023-02-25T17:37:09;11.93;;;3.70;;
21743;SDS011;11034;48.556;9.342;2023-02-25T17:39:39;10.85;;;3.88;;
21743;SDS011;11034;48.556;9.342;2023-02-25T17:42:27;15.30;;;5.00;;
21743;SDS011;11034;48.556;9.342;2023-02-25T17:44:57;13.43;;;4.93;;
21743;SDS011;11034;48.556;9.342;2023-02-25T17:47:27;10.05;;;4.75;;
21743;SDS011;11034;48.556;9.342;2023-02-25T17:49:57;13.30;;;4.65;;
21743;SDS011;11034;48.556;9.342;2023-02-25T17:52:30;14.77;;;4.63;;
21743;SDS011;11034;48.556;9.342;2023-02-25T17:54:59;12.15;;;4.50;;
21743;SDS011;11034;48.556;9.342;2023-02-25T17:57:32;13.50;;;5.32;;
21743;SDS011;11034;48.556;9.342;2023-02-25T18:00:09;11.32;;;4.65;;
21743;SDS011;11034;48.556;9.342;2023-02-25T18:02:39;11.80;;;5.10;;
21743;SDS011;11034;48.556;9.342;2023-02-25T18:05:22;9.82;;;3.85;;
21743;SDS011;11034;48.556;9.342;2023-02-25T18:07:58;10.68;;;4.15;;
21743;SDS011;11034;48.556;9.342;2023-02-25T18:13:20;9.40;;;3.50;;
21743;SDS011;11034;48.556;9.342;2023-02-25T18:18:57;3.38;;;2.30;;
21743;SDS011;11034;48.556;9.342;2023-02-25T18:21:26;10.77;;;5.97;;
21743;SDS011;11034;48.556;9.342;2023-02-25T18:23:55;5.10;;;2.88;;
21743;SDS011;11034;48.556;9.342;2023-02-25T18:26:23;6.07;;;2.60;;
21743;SDS011;11034;48.556;9.342;2023-02-25T18:28:54;5.47;;;2.80;;
21743;SDS011;11034;48.556;9.342;2023-02-25T18:31:23;5.28;;;2.97;;
21743;SDS011;11034;48.556;9.342;2023-02-25T18:33:52;4.22;;;2.38;;
21743;SDS011;11034;48.556;9.342;2023-02-25T18:36:21;6.10;;;2.65;;
21743;SDS011;11034;48.556;9.342;2023-02-25T18:38:52;4.65;;;2.47;;
21743;SDS011;11034;48.556;9.342;2023-02-25T18:41:22;4.00;;;2.22;;
21743;SDS011;11034;48.556;9.342;2023-02-25T18:43:50;5.22;;;2.67;;
21743;SDS011;11034;48.556;9.342;2023-02-25T18:46:21;8.48;;;2.95;;
21743;SDS011;11034;48.556;9.342;2023-02-25T18:48:49;8.30;;;3.20;;
21743;SDS011;11034;48.556;9.342;2023-02-25T18:51:17;5.40;;;3.03;;
21743;SDS011;11034;48.556;9.342;2023-02-25T18:53:48;6.15;;;3.30;;
21743;SDS011;11034;48.556;9.342;2023-02-25T18:56:19;5.20;;;3.38;;
21743;SDS011;11034;48.556;9.342;2023-02-25T18:58:48;8.32;;;4.03;;
21743;SDS011;11034;48.556;9.342;2023-02-25T19:01:23;6.85;;;4.22;;
21743;SDS011;11034;48.556;9.342;2023-02-25T19:03:55;7.25;;;4.90;;
21743;SDS011;11034;48.556;9.342;2023-02-25T19:06:25;9.35;;;5.07;;
21743;SDS011;11034;48.556;9.342;2023-02-25T19:08:54;9.77;;;5.15;;
21743;SDS011;11034;48.556;9.342;2023-02-25T19:11:23;9.10;;;5.30;;
21743;SDS011;11034;48.556;9.342;2023-02-25T19:13:53;9.30;;;5.70;;
21743;SDS011;11034;48.556;9.342;2023-02-25T19:16:22;12.35;;;6.47;;
21743;SDS011;11034;48.556;9.342;2023-02-25T19:18:51;16.30;;;6.05;;
21743;SDS011;11034;48.556;9.342;2023-02-25T19:21:20;10.48;;;6.30;;
21743;SDS011;11034;48.556;9.342;2023-02-25T19:23:48;8.82;;;5.18;;
21743;SDS011;11034;48.556;9.342;2023-02-25T19:26:18;10.13;;;5.45;;
21743;SDS011;11034;48.556;9.342;2023-02-25T19:28:47;11.90;;;6.22;;
21743;SDS011;11034;48.556;9.342;2023-02-25T19:31:15;7.60;;;5.65;;
21743;SDS011;11034;48.556;9.342;2023-02-25T19:33:45;14.27;;;6.55;;
21743;SDS011;11034;48.556;9.342;2023-02-25T19:36:13;13.82;;;6.95;;
21743;SDS011;11034;48.556;9.342;2023-02-25T19:38:41;12.70;;;6.95;;
21743;SDS011;11034;48.556;9.342;2023-02-25T19:41:09;47.33;;;8.48;;
21743;SDS011;11034;48.556;9.342;2023-02-25T19:43:41;50.42;;;9.23;;
21743;SDS011;11034;48.556;9.342;2023-02-25T19:46:09;17.85;;;7.30;;
21743;SDS011;11034;48.556;9.342;2023-02-25T19:48:37;20.30;;;9.02;;
21743;SDS011;11034;48.556;9.342;2023-02-25T19:51:07;12.88;;;7.43;;
21743;SDS011;11034;48.556;9.342;2023-02-25T19:53:36;11.20;;;7.13;;
21743;SDS011;11034;48.556;9.342;2023-02-25T19:56:07;13.40;;;8.00;;
21743;SDS011;11034;48.556;9.342;2023-02-25T19:58:35;13.77;;;7.10;;
21743;SDS011;11034;48.556;9.342;2023-02-25T20:01:04;9.57;;;6.63;;
21743;SDS011;11034;48.556;9.342;2023-02-25T20:03:33;8.80;;;6.10;;
21743;SDS011;11034;48.556;9.342;2023-02-25T20:06:02;10.13;;;6.40;;
21743;SDS011;11034;48.556;9.342;2023-02-25T20:08:34;10.10;;;6.53;;
21743;SDS011;11034;48.556;9.342;2023-02-25T20:11:06;13.93;;;6.50;;
21743;SDS011;11034;48.556;9.342;2023-02-25T20:13:35;12.38;;;6.63;;
21743;SDS011;11034;48.556;9.342;2023-02-25T20:16:04;11.40;;;6.82;;
21743;SDS011;11034;48.556;9.342;2023-02-25T20:18:34;13.20;;;6.63;;
21743;SDS011;11034;48.556;9.342;2023-02-25T20:21:02;13.30;;;6.80;;
21743;SDS011;11034;48.556;9.342;2023-02-25T20:23:30;11.73;;;7.10;;
21743;SDS011;11034;48.556;9.342;2023-02-25T20:26:04;12.75;;;7.13;;
21743;SDS011;11034;48.556;9.342;2023-02-25T20:28:33;11.20;;;7.60;;
21743;SDS011;11034;48.556;9.342;2023-02-25T20:31:02;14.02;;;7.60;;
21743;SDS011;11034;48.556;9.342;2023-02-25T20:33:31;12.02;;;7.55;;
21743;SDS011;11034;48.556;9.342;2023-02-25T20:35:59;12.68;;;7.65;;
21743;SDS011;11034;48.556;9.342;2023-02-25T20:38:30;15.52;;;9.05;;
21743;SDS011;11034;48.556;9.342;2023-02-25T20:41:04;15.23;;;8.27;;
21743;SDS011;11034;48.556;9.342;2023-02-25T20:43:33;19.17;;;9.00;;
21743;SDS011;11034;48.556;9.342;2023-02-25T20:46:01;19.45;;;10.27;;
21743;SDS011;11034;48.556;9.342;2023-02-25T20:48:30;21.55;;;11.23;;
21743;SDS011;11034;48.556;9.342;2023-02-25T20:50:59;16.17;;;8.75;;
21743;SDS011;11034;48.556;9.342;2023-02-25T20:53:27;15.30;;;8.50;;
21743;SDS011;11034;48.556;9.342;2023-02-25T20:55:55;13.82;;;8.65;;
21743;SDS011;11034;48.556;9.342;2023-02-25T20:58:25;18.10;;;9.68;;
